createdAt,value
2019-05-30T00:01:33.433Z,23.90
2019-05-30T00:04:04.939Z,26.68
2019-05-30T00:06:36.024Z,24.05
2019-05-30T00:09:10.060Z,23.95
2019-05-30T00:11:41.031Z,22.22
2019-05-30T00:14:11.976Z,19.95
2019-05-30T00:16:42.940Z,18.92
2019-05-30T00:19:13.881Z,22.30
2019-05-30T00:21:44.823Z,21.55
2019-05-30T00:24:16.892Z,20.80
2019-05-30T00:26:47.859Z,21.95
2019-05-30T00:29:18.800Z,24.63
2019-05-30T00:31:49.791Z,19.57
2019-05-30T00:34:20.785Z,21.93
2019-05-30T00:36:52.275Z,19.80
2019-05-30T00:39:23.319Z,23.02
2019-05-30T00:41:54.328Z,20.52
2019-05-30T00:44:25.229Z,16.57
2019-05-30T00:46:56.273Z,20.37
2019-05-30T00:49:29.782Z,17.85
2019-05-30T00:52:04.954Z,19.90
2019-05-30T00:54:36.164Z,17.32
2019-05-30T00:57:07.153Z,18.77
2019-05-30T00:59:38.127Z,19.10
2019-05-30T01:02:09.068Z,19.80
2019-05-30T01:04:40.183Z,26.50
2019-05-30T01:07:11.120Z,23.15
2019-05-30T01:09:42.186Z,23.90
2019-05-30T01:12:13.198Z,22.73
2019-05-30T01:14:44.461Z,28.80
2019-05-30T01:17:16.780Z,24.50
2019-05-30T01:19:47.823Z,26.40
2019-05-30T01:22:18.866Z,25.97
2019-05-30T01:24:49.851Z,29.00
2019-05-30T01:27:20.793Z,29.45
2019-05-30T01:29:51.802Z,25.15
2019-05-30T01:32:31.768Z,30.62
2019-05-30T01:35:03.864Z,28.85
2019-05-30T01:37:34.965Z,37.08
2019-05-30T01:40:08.970Z,28.27
2019-05-30T01:42:40.033Z,26.40
2019-05-30T01:45:11.410Z,32.85
2019-05-30T01:47:42.347Z,28.67
2019-05-30T01:50:13.746Z,31.87
2019-05-30T01:52:44.763Z,36.63
2019-05-30T01:55:15.733Z,40.30
2019-05-30T01:57:46.672Z,32.80
2019-05-30T02:00:21.097Z,33.53
2019-05-30T02:02:51.208Z,35.83
2019-05-30T02:05:22.381Z,40.33
2019-05-30T02:07:53.362Z,40.17
2019-05-30T02:10:24.339Z,33.50
2019-05-30T02:12:55.301Z,38.92
2019-05-30T02:15:26.273Z,40.65
2019-05-30T02:17:57.212Z,41.98
2019-05-30T02:20:28.185Z,45.25
2019-05-30T02:22:59.665Z,35.95
2019-05-30T02:25:30.680Z,40.55
2019-05-30T02:28:02.095Z,36.30
2019-05-30T02:30:33.082Z,35.33
2019-05-30T02:33:05.286Z,43.68
2019-05-30T02:35:36.701Z,43.23
2019-05-30T02:38:09.474Z,40.25
2019-05-30T02:40:40.363Z,38.98
2019-05-30T02:43:12.268Z,45.15
2019-05-30T02:45:43.480Z,39.45
2019-05-30T02:48:14.424Z,45.55
2019-05-30T02:50:45.429Z,52.10
2019-05-30T02:53:16.370Z,54.00
2019-05-30T02:55:48.561Z,45.00
2019-05-30T02:58:19.517Z,54.13
2019-05-30T03:00:50.549Z,57.48
2019-05-30T03:03:21.484Z,54.50
2019-05-30T03:05:52.455Z,60.65
2019-05-30T03:08:23.600Z,71.10
2019-05-30T03:10:54.671Z,69.70
2019-05-30T03:13:25.735Z,65.45
2019-05-30T03:15:56.703Z,69.40
2019-05-30T03:18:27.656Z,71.22
2019-05-30T03:20:58.696Z,112.42
2019-05-30T03:23:29.665Z,112.42
2019-05-30T03:26:02.561Z,110.17
2019-05-30T03:28:34.013Z,145.68
2019-05-30T03:31:13.906Z,171.22
2019-05-30T03:33:42.540Z,197.15
2019-05-30T03:36:26.462Z,274.48
2019-05-30T03:38:45.182Z,228.92
2019-05-30T03:41:16.159Z,246.97
2019-05-30T03:43:47.138Z,323.62
2019-05-30T03:46:28.185Z,327.73
2019-05-30T03:49:04.110Z,383.57
2019-05-30T03:51:36.997Z,265.25
2019-05-30T03:54:09.867Z,287.23
2019-05-30T03:57:04.659Z,226.95
2019-05-30T04:00:00.801Z,234.60
2019-05-30T04:02:57.507Z,130.65
2019-05-30T04:05:29.126Z,155.32
2019-05-30T04:08:02.616Z,167.55
2019-05-30T04:10:36.594Z,188.55
2019-05-30T04:13:31.556Z,142.62
2019-05-30T04:16:02.505Z,136.57
2019-05-30T04:18:33.474Z,131.10
2019-05-30T04:21:04.513Z,96.30
2019-05-30T04:23:36.487Z,128.60
2019-05-30T04:26:07.551Z,96.80
2019-05-30T04:28:38.589Z,74.37
2019-05-30T04:31:10.048Z,61.85
2019-05-30T04:33:41.178Z,65.95
2019-05-30T04:36:12.486Z,43.10
2019-05-30T04:38:43.601Z,40.05
2019-05-30T04:41:16.058Z,45.12
2019-05-30T04:43:47.225Z,39.25
2019-05-30T04:46:19.527Z,70.57
2019-05-30T04:48:50.837Z,41.55
2019-05-30T04:51:22.019Z,30.37
2019-05-30T04:53:53.023Z,29.02
2019-05-30T04:56:23.965Z,34.98
2019-05-30T04:58:55.035Z,30.85
2019-05-30T05:01:25.978Z,34.13
2019-05-30T05:03:56.960Z,33.98
2019-05-30T05:06:27.908Z,75.70
2019-05-30T05:08:58.969Z,26.77
2019-05-30T05:11:30.240Z,37.42
2019-05-30T05:14:01.219Z,26.73
2019-05-30T05:16:35.921Z,26.27
2019-05-30T05:19:05.844Z,33.42
2019-05-30T05:21:36.820Z,27.42
2019-05-30T05:24:07.796Z,24.47
2019-05-30T05:26:38.766Z,22.42
2019-05-30T05:29:09.741Z,23.62
2019-05-30T05:31:40.713Z,21.12
2019-05-30T05:34:11.667Z,16.82
2019-05-30T05:36:42.645Z,19.25
2019-05-30T05:39:13.645Z,15.72
2019-05-30T05:41:44.662Z,18.02
2019-05-30T05:44:16.187Z,21.30
2019-05-30T05:46:47.173Z,19.07
2019-05-30T05:49:18.445Z,18.23
2019-05-30T05:51:49.476Z,18.27
2019-05-30T05:54:20.882Z,19.67
2019-05-30T05:56:51.982Z,19.80
2019-05-30T05:59:23.121Z,22.60
2019-05-30T06:01:54.102Z,18.35
2019-05-30T06:04:25.322Z,18.23
2019-05-30T06:06:56.311Z,16.67
2019-05-30T06:09:27.258Z,18.10
2019-05-30T06:11:58.245Z,17.52
2019-05-30T06:14:29.207Z,30.70
2019-05-30T06:17:00.190Z,12.68
2019-05-30T06:19:45.422Z,12.30
2019-05-30T06:22:03.833Z,16.87
2019-05-30T06:24:34.778Z,14.78
2019-05-30T06:27:05.754Z,12.37
2019-05-30T06:29:36.706Z,13.22
2019-05-30T06:32:08.683Z,13.03
2019-05-30T06:34:40.235Z,12.50
2019-05-30T06:37:12.158Z,11.33
2019-05-30T06:39:43.308Z,12.98
2019-05-30T06:42:14.385Z,12.73
2019-05-30T06:44:45.335Z,15.80
2019-05-30T06:47:16.305Z,12.37
2019-05-30T06:49:47.291Z,11.75
2019-05-30T06:52:18.371Z,13.35
2019-05-30T06:54:49.337Z,11.12
2019-05-30T06:57:21.175Z,16.55
2019-05-30T06:59:52.232Z,8.98
2019-05-30T07:02:24.198Z,7.62
2019-05-30T07:04:55.909Z,8.73
2019-05-30T07:07:27.866Z,8.40
2019-05-30T07:09:59.909Z,9.20
2019-05-30T07:12:31.199Z,16.00
2019-05-30T07:15:03.666Z,7.10
2019-05-30T07:17:39.289Z,11.63
2019-05-30T07:20:13.631Z,22.42
2019-05-30T07:22:44.582Z,19.70
2019-05-30T07:25:15.938Z,13.83
2019-05-30T07:27:46.882Z,14.10
2019-05-30T07:30:18.179Z,7.40
2019-05-30T07:32:49.109Z,7.87
2019-05-30T07:35:20.169Z,8.30
2019-05-30T07:37:51.109Z,9.05
2019-05-30T07:40:22.177Z,9.25
2019-05-30T07:42:53.138Z,6.92
2019-05-30T07:45:24.847Z,6.15
2019-05-30T07:47:55.939Z,5.10
2019-05-30T07:50:28.267Z,5.20
2019-05-30T07:52:59.391Z,6.62
2019-05-30T07:55:31.656Z,9.58
2019-05-30T07:58:02.673Z,6.50
2019-05-30T08:00:33.768Z,3.42
2019-05-30T08:03:04.713Z,3.83
2019-05-30T08:05:35.900Z,10.50
2019-05-30T08:08:06.874Z,4.33
2019-05-30T08:10:38.255Z,5.43
2019-05-30T08:13:09.282Z,4.10
2019-05-30T08:15:44.046Z,5.00
2019-05-30T08:18:12.931Z,4.70
2019-05-30T08:20:45.453Z,3.93
2019-05-30T08:23:16.402Z,2.97
2019-05-30T08:25:47.481Z,4.07
2019-05-30T08:28:18.472Z,3.17
2019-05-30T08:30:50.746Z,5.73
2019-05-30T08:33:21.908Z,6.10
2019-05-30T08:35:52.955Z,4.40
2019-05-30T08:38:23.895Z,2.27
2019-05-30T08:40:54.863Z,7.47
2019-05-30T08:43:25.815Z,3.87
2019-05-30T08:45:56.793Z,2.33
2019-05-30T08:48:27.760Z,3.03
2019-05-30T08:50:58.823Z,3.70
2019-05-30T08:53:32.780Z,2.70
2019-05-30T08:56:04.552Z,3.63
2019-05-30T08:58:36.696Z,5.10
2019-05-30T09:01:08.478Z,3.90
2019-05-30T09:03:40.096Z,6.08
2019-05-30T09:06:11.330Z,4.47
2019-05-30T09:08:42.270Z,3.57
2019-05-30T09:11:13.238Z,3.00
2019-05-30T09:13:44.578Z,4.00
2019-05-30T09:16:16.628Z,5.03
2019-05-30T09:18:47.577Z,6.53
2019-05-30T09:21:18.630Z,4.87
2019-05-30T09:23:49.637Z,3.13
2019-05-30T09:26:20.628Z,4.33
2019-05-30T09:28:51.601Z,3.07
2019-05-30T09:31:22.540Z,6.33
2019-05-30T09:33:53.577Z,8.50
2019-05-30T09:36:24.567Z,6.37
2019-05-30T09:38:55.538Z,2.70
2019-05-30T09:41:26.480Z,2.77
2019-05-30T09:43:57.452Z,3.97
2019-05-30T09:46:28.399Z,3.33
2019-05-30T09:48:59.375Z,2.80
2019-05-30T09:51:31.326Z,6.47
2019-05-30T09:54:02.295Z,2.30
2019-05-30T09:56:33.262Z,3.50
2019-05-30T09:59:04.226Z,3.50
2019-05-30T10:01:35.184Z,4.58
2019-05-30T10:04:06.362Z,2.33
2019-05-30T10:06:37.308Z,6.23
2019-05-30T10:09:10.531Z,8.37
2019-05-30T10:11:45.582Z,4.87
2019-05-30T10:14:16.700Z,9.23
2019-05-30T10:16:52.935Z,3.87
2019-05-30T10:19:20.320Z,3.03
2019-05-30T10:21:52.150Z,4.47
2019-05-30T10:24:24.144Z,2.63
2019-05-30T10:26:55.082Z,3.63
2019-05-30T10:29:26.057Z,3.60
2019-05-30T10:31:57.052Z,2.00
2019-05-30T10:34:28.046Z,2.70
2019-05-30T10:36:58.981Z,2.43
2019-05-30T10:39:29.975Z,5.03
2019-05-30T10:42:01.118Z,2.53
2019-05-30T10:44:32.136Z,1.93
2019-05-30T10:47:03.072Z,2.23
2019-05-30T10:49:35.254Z,4.33
2019-05-30T10:52:07.478Z,1.80
2019-05-30T10:54:38.547Z,1.93
2019-05-30T10:57:09.632Z,2.50
2019-05-30T10:59:40.691Z,1.67
2019-05-30T11:02:11.884Z,2.00
2019-05-30T11:04:43.120Z,2.53
2019-05-30T11:07:34.682Z,2.97
2019-05-30T11:10:15.579Z,3.10
2019-05-30T11:12:46.867Z,2.23
2019-05-30T11:15:19.359Z,8.77
2019-05-30T11:17:52.480Z,2.50
2019-05-30T11:20:22.996Z,6.50
2019-05-30T11:22:54.583Z,1.93
2019-05-30T11:25:25.589Z,5.73
2019-05-30T11:27:56.841Z,2.00
2019-05-30T11:30:28.172Z,2.13
2019-05-30T11:32:59.401Z,3.47
2019-05-30T11:35:31.350Z,1.23
2019-05-30T11:38:03.321Z,2.30
2019-05-30T11:40:34.295Z,1.33
2019-05-30T11:43:05.235Z,4.67
2019-05-30T11:45:36.218Z,2.67
2019-05-30T11:48:07.180Z,3.67
2019-05-30T11:50:38.147Z,6.20
2019-05-30T11:53:09.119Z,3.47
2019-05-30T11:55:40.075Z,2.47
2019-05-30T11:58:11.035Z,1.60
2019-05-30T12:00:41.979Z,2.70
2019-05-30T12:03:12.949Z,2.00
2019-05-30T12:05:44.090Z,2.93
2019-05-30T12:08:16.369Z,2.00
2019-05-30T12:10:47.303Z,2.10
2019-05-30T12:13:19.279Z,2.13
2019-05-30T12:15:51.344Z,1.90
2019-05-30T12:18:22.376Z,3.40
2019-05-30T12:20:53.622Z,2.00
2019-05-30T12:23:24.688Z,4.60
2019-05-30T12:25:55.972Z,1.37
2019-05-30T12:28:26.987Z,1.90
2019-05-30T12:31:02.716Z,1.90
2019-05-30T12:33:30.610Z,4.90
2019-05-30T12:36:02.680Z,1.70
2019-05-30T12:38:33.770Z,1.53
2019-05-30T12:41:04.704Z,1.30
2019-05-30T12:43:35.675Z,2.47
2019-05-30T12:46:06.712Z,2.47
2019-05-30T12:48:37.684Z,4.30
2019-05-30T12:51:08.624Z,5.67
2019-05-30T12:53:41.164Z,4.47
2019-05-30T12:56:12.115Z,2.00
2019-05-30T12:58:43.084Z,2.60
2019-05-30T13:01:14.024Z,1.80
2019-05-30T13:03:44.989Z,1.70
2019-05-30T13:06:15.928Z,2.00
2019-05-30T13:08:46.896Z,2.00
2019-05-30T13:11:17.847Z,2.10
2019-05-30T13:13:49.813Z,5.10
2019-05-30T13:16:20.749Z,5.53
2019-05-30T13:18:51.715Z,4.47
2019-05-30T13:21:22.652Z,1.67
2019-05-30T13:23:53.624Z,3.00
2019-05-30T13:26:24.563Z,1.17
2019-05-30T13:28:56.015Z,0.80
2019-05-30T13:31:27.118Z,2.60
2019-05-30T13:33:58.712Z,4.50
2019-05-30T13:36:29.783Z,1.23
2019-05-30T13:39:01.160Z,1.10
2019-05-30T13:41:33.737Z,6.90
2019-05-30T13:44:06.840Z,72.90
2019-05-30T13:46:37.370Z,2.73
2019-05-30T13:49:08.799Z,3.93
2019-05-30T13:51:39.759Z,1.77
2019-05-30T13:54:10.729Z,6.83
2019-05-30T13:56:41.660Z,13.70
2019-05-30T13:59:12.636Z,8.97
2019-05-30T14:01:43.625Z,4.23
2019-05-30T14:04:14.628Z,2.90
2019-05-30T14:06:45.599Z,2.10
2019-05-30T14:09:16.617Z,3.60
2019-05-30T14:11:47.560Z,9.13
2019-05-30T14:14:19.781Z,1.67
2019-05-30T14:16:50.953Z,3.70
2019-05-30T14:19:25.010Z,1.47
2019-05-30T14:21:54.574Z,1.30
2019-05-30T14:24:25.782Z,4.23
2019-05-30T14:26:56.725Z,2.60
2019-05-30T14:29:28.197Z,3.17
2019-05-30T14:31:59.236Z,4.70
2019-05-30T14:34:30.204Z,2.20
2019-05-30T14:37:02.275Z,1.63
2019-05-30T14:39:33.392Z,0.77
2019-05-30T14:42:05.009Z,1.33
2019-05-30T14:44:36.092Z,1.50
2019-05-30T14:47:08.121Z,1.80
2019-05-30T14:49:39.383Z,0.93
2019-05-30T14:52:11.763Z,1.30
2019-05-30T14:54:43.201Z,1.47
2019-05-30T14:57:14.159Z,4.33
2019-05-30T14:59:45.120Z,1.20
2019-05-30T15:02:16.068Z,1.60
2019-05-30T15:04:47.029Z,5.50
2019-05-30T15:07:17.968Z,1.43
2019-05-30T15:09:48.940Z,0.90
2019-05-30T15:12:19.880Z,3.80
2019-05-30T15:14:50.852Z,2.93
2019-05-30T15:17:21.799Z,10.93
2019-05-30T15:19:51.897Z,0.90
2019-05-30T15:22:22.703Z,1.77
2019-05-30T15:24:53.678Z,3.23
2019-05-30T15:27:24.635Z,1.50
2019-05-30T15:29:55.670Z,2.37
2019-05-30T15:32:26.613Z,1.50
2019-05-30T15:34:57.587Z,2.33
2019-05-30T15:37:28.526Z,1.20
2019-05-30T15:39:59.503Z,1.00
2019-05-30T15:42:30.444Z,1.07
2019-05-30T15:45:01.417Z,1.67
2019-05-30T15:47:32.356Z,8.93
2019-05-30T15:50:03.330Z,1.23
2019-05-30T15:52:34.279Z,5.60
2019-05-30T15:55:07.545Z,2.20
2019-05-30T15:57:38.515Z,5.10
2019-05-30T16:00:14.090Z,1.90
2019-05-30T16:02:46.260Z,1.73
2019-05-30T16:05:18.681Z,1.30
2019-05-30T16:07:49.756Z,3.10
2019-05-30T16:10:21.063Z,12.83
2019-05-30T16:12:52.157Z,2.80
2019-05-30T16:15:23.120Z,5.90
2019-05-30T16:17:54.092Z,4.00
2019-05-30T16:20:25.034Z,5.70
2019-05-30T16:22:56.008Z,2.27
2019-05-30T16:25:26.962Z,0.90
2019-05-30T16:27:57.956Z,2.17
2019-05-30T16:30:28.952Z,1.27
2019-05-30T16:32:59.921Z,1.10
2019-05-30T16:35:30.866Z,86.23
2019-05-30T16:38:01.857Z,4.03
2019-05-30T16:40:32.802Z,2.00
2019-05-30T16:43:03.773Z,1.17
2019-05-30T16:45:34.761Z,1.40
2019-05-30T16:48:05.833Z,2.07
2019-05-30T16:50:36.825Z,3.70
2019-05-30T16:53:07.790Z,3.40
2019-05-30T16:55:38.728Z,1.70
2019-05-30T16:58:09.695Z,1.67
2019-05-30T17:00:40.633Z,1.13
2019-05-30T17:03:11.600Z,3.60
2019-05-30T17:05:42.537Z,1.40
2019-05-30T17:08:13.527Z,3.67
2019-05-30T17:10:45.461Z,1.10
2019-05-30T17:13:17.676Z,0.97
2019-05-30T17:15:48.739Z,0.97
2019-05-30T17:18:20.257Z,2.20
2019-05-30T17:20:51.320Z,1.40
2019-05-30T17:23:22.745Z,1.10
2019-05-30T17:25:53.762Z,9.67
2019-05-30T17:28:24.730Z,1.30
2019-05-30T17:30:55.663Z,6.10
2019-05-30T17:33:26.817Z,4.87
2019-05-30T17:35:59.797Z,1.67
2019-05-30T17:38:30.774Z,2.13
2019-05-30T17:41:01.707Z,1.03
2019-05-30T17:43:32.700Z,1.10
2019-05-30T17:46:03.646Z,2.73
2019-05-30T17:48:35.617Z,2.30
2019-05-30T17:51:06.555Z,2.70
2019-05-30T17:53:37.836Z,4.80
2019-05-30T17:56:08.778Z,1.57
2019-05-30T17:58:39.749Z,2.60
2019-05-30T18:01:10.700Z,3.30
2019-05-30T18:03:41.679Z,2.00
2019-05-30T18:06:12.612Z,2.20
2019-05-30T18:08:43.586Z,5.03
2019-05-30T18:11:14.523Z,5.23
2019-05-30T18:13:45.489Z,4.47
2019-05-30T18:16:16.427Z,1.37
2019-05-30T18:18:47.407Z,4.20
2019-05-30T18:21:18.353Z,1.57
2019-05-30T18:23:49.327Z,2.20
2019-05-30T18:26:21.373Z,3.43
2019-05-30T18:28:52.534Z,2.73
2019-05-30T18:31:23.875Z,2.93
2019-05-30T18:33:54.838Z,3.70
2019-05-30T18:36:26.312Z,2.57
2019-05-30T18:38:57.314Z,2.40
2019-05-30T18:41:28.795Z,3.33
2019-05-30T18:43:59.812Z,1.32
2019-05-30T18:46:31.210Z,3.10
2019-05-30T18:49:02.216Z,2.20
2019-05-30T18:51:33.193Z,2.80
2019-05-30T18:54:04.132Z,5.30
2019-05-30T18:56:35.109Z,5.33
2019-05-30T18:59:06.083Z,8.03
2019-05-30T19:01:37.921Z,7.58
2019-05-30T19:04:09.133Z,4.53
2019-05-30T19:06:40.098Z,6.30
2019-05-30T19:09:12.071Z,3.08
2019-05-30T19:11:43.017Z,11.78
2019-05-30T19:14:14.018Z,7.22
2019-05-30T19:16:45.017Z,6.28
2019-05-30T19:19:15.994Z,6.95
2019-05-30T19:21:46.962Z,19.00
2019-05-30T19:24:17.984Z,5.65
2019-05-30T19:26:48.922Z,4.45
2019-05-30T19:29:19.910Z,4.35
2019-05-30T19:31:50.953Z,7.45
2019-05-30T19:34:21.947Z,4.40
2019-05-30T19:36:52.896Z,3.55
2019-05-30T19:39:23.871Z,3.17
2019-05-30T19:41:58.349Z,6.28
2019-05-30T19:44:27.971Z,8.00
2019-05-30T19:46:58.935Z,4.80
2019-05-30T19:49:30.372Z,2.52
2019-05-30T19:52:01.431Z,10.78
2019-05-30T19:54:33.106Z,9.60
2019-05-30T19:57:04.176Z,7.33
2019-05-30T19:59:36.254Z,6.50
2019-05-30T20:02:07.485Z,8.23
2019-05-30T20:04:38.465Z,8.05
2019-05-30T20:07:09.919Z,21.80
2019-05-30T20:09:40.890Z,3.50
2019-05-30T20:12:11.907Z,5.30
2019-05-30T20:14:43.851Z,4.03
2019-05-30T20:17:14.828Z,10.45
2019-05-30T20:19:45.772Z,2.72
2019-05-30T20:22:16.750Z,3.10
2019-05-30T20:24:47.684Z,2.27
2019-05-30T20:27:18.663Z,5.28
2019-05-30T20:29:49.615Z,13.75
2019-05-30T20:32:20.607Z,6.40
2019-05-30T20:34:51.537Z,9.40
2019-05-30T20:37:22.525Z,5.95
2019-05-30T20:39:53.464Z,24.57
2019-05-30T20:42:24.490Z,8.63
2019-05-30T20:44:55.444Z,4.53
2019-05-30T20:47:26.416Z,3.70
2019-05-30T20:49:57.355Z,2.90
2019-05-30T20:52:28.553Z,6.60
2019-05-30T20:54:59.564Z,7.60
2019-05-30T20:57:30.642Z,6.37
2019-05-30T21:00:01.600Z,4.33
2019-05-30T21:02:34.631Z,3.60
2019-05-30T21:05:08.759Z,4.12
2019-05-30T21:07:40.171Z,2.60
2019-05-30T21:10:12.128Z,4.03
2019-05-30T21:12:47.778Z,4.15
2019-05-30T21:15:18.188Z,6.62
2019-05-30T21:17:49.157Z,6.53
2019-05-30T21:20:20.301Z,4.97
2019-05-30T21:22:51.286Z,3.33
2019-05-30T21:25:22.307Z,3.85
2019-05-30T21:27:53.339Z,7.03
2019-05-30T21:30:24.277Z,2.75
2019-05-30T21:32:55.353Z,2.72
2019-05-30T21:35:26.746Z,5.15
2019-05-30T21:37:57.813Z,3.37
2019-05-30T21:40:28.748Z,5.40
2019-05-30T21:43:06.400Z,2.83
2019-05-30T21:45:32.351Z,2.90
2019-05-30T21:48:03.319Z,3.58
2019-05-30T21:50:34.254Z,3.62
2019-05-30T21:53:05.321Z,3.47
2019-05-30T21:55:36.266Z,3.08
2019-05-30T21:58:07.307Z,2.27
2019-05-30T22:00:51.794Z,7.58
2019-05-30T22:03:22.764Z,3.25
2019-05-30T22:05:53.699Z,2.95
2019-05-30T22:08:24.679Z,4.05
2019-05-30T22:10:55.682Z,2.72
2019-05-30T22:13:26.650Z,13.53
2019-05-30T22:15:57.592Z,5.12
2019-05-30T22:18:28.554Z,4.08
2019-05-30T22:20:59.491Z,3.15
2019-05-30T22:23:30.467Z,2.50
2019-05-30T22:26:01.390Z,8.90
2019-05-30T22:28:32.364Z,4.67
2019-05-30T22:31:03.301Z,5.10
2019-05-30T22:33:34.272Z,3.47
2019-05-30T22:36:05.214Z,3.22
2019-05-30T22:38:36.187Z,7.25
2019-05-30T22:41:07.122Z,3.08
2019-05-30T22:43:38.129Z,3.55
2019-05-30T22:46:09.134Z,3.17
2019-05-30T22:48:40.102Z,3.90
2019-05-30T22:51:11.040Z,4.45
2019-05-30T22:53:42.054Z,2.65
2019-05-30T22:56:14.031Z,2.72
2019-05-30T22:58:45.552Z,2.65
2019-05-30T23:01:16.561Z,2.90
2019-05-30T23:03:47.548Z,2.92
2019-05-30T23:06:18.481Z,2.77
2019-05-30T23:08:50.496Z,2.25
2019-05-30T23:11:21.464Z,2.37
2019-05-30T23:13:52.427Z,2.85
2019-05-30T23:16:23.392Z,3.00
2019-05-30T23:18:54.762Z,2.47
2019-05-30T23:21:25.905Z,1.60
2019-05-30T23:23:57.263Z,7.47
2019-05-30T23:26:28.398Z,1.90
2019-05-30T23:28:59.331Z,2.05
2019-05-30T23:31:30.303Z,4.03
2019-05-30T23:34:01.247Z,2.12
2019-05-30T23:36:32.212Z,2.52
2019-05-30T23:39:03.150Z,1.82
2019-05-30T23:41:35.823Z,2.35
2019-05-30T23:44:11.435Z,2.33
2019-05-30T23:46:39.433Z,2.17
2019-05-30T23:49:10.385Z,3.47
2019-05-30T23:51:41.551Z,2.25
2019-05-30T23:54:12.484Z,2.10
2019-05-30T23:56:43.457Z,1.85
2019-05-30T23:59:14.483Z,2.05
